Time;durP1;ratioP1;P1;durP2;ratioP2;P2;SDS_P1;SDS_P2;PMS_P1;PMS_P2;Temp;Humidity;BMP_temperature;BMP_pressure;BME280_temperature;BME280_humidity;BME280_pressure;Samples;Min_cycle;Max_cycle;Signal;HPM_P1;HPM_P2
2022/07/18 00:01:29;;;;;;;2.30;1.80;;;17.00;96.60;;;;;;5016386;28;20220;-82
2022/07/18 00:03:55;;;;;;;3.07;1.80;;;17.10;96.30;;;;;;5016265;28;20199;-82
2022/07/18 00:06:20;;;;;;;3.17;1.70;;;16.70;97.10;;;;;;5014879;28;20252;-83
2022/07/18 00:08:46;;;;;;;4.80;1.80;;;16.70;97.10;;;;;;5017096;28;20190;-83
2022/07/18 00:11:12;;;;;;;4.83;1.90;;;16.80;97.30;;;;;;5014472;28;20269;-83
2022/07/18 00:13:37;;;;;;;3.00;1.87;;;16.70;97.20;;;;;;5014458;28;20195;-83
2022/07/18 00:16:03;;;;;;;4.57;1.93;;;16.50;97.50;;;;;;5014377;28;20203;-82
2022/07/18 00:18:29;;;;;;;4.33;1.90;;;16.40;97.20;;;;;;5014427;28;20171;-82
2022/07/18 00:20:55;;;;;;;3.13;1.77;;;16.50;97.20;;;;;;5015839;28;20647;-82
2022/07/18 00:23:20;;;;;;;2.83;1.67;;;16.40;97.70;;;;;;5014812;28;20275;-82
2022/07/18 00:25:46;;;;;;;8.40;1.90;;;16.30;97.90;;;;;;5014650;28;20185;-82
2022/07/18 00:28:12;;;;;;;5.43;1.90;;;16.50;97.50;;;;;;5014717;28;20181;-82
2022/07/18 00:30:39;;;;;;;5.20;2.03;;;16.30;97.50;;;;;;5015672;28;20185;-82
2022/07/18 00:33:04;;;;;;;3.90;1.93;;;16.40;96.70;;;;;;5014454;28;20635;-82
2022/07/18 00:35:30;;;;;;;3.40;2.00;;;16.30;97.40;;;;;;5015064;28;20199;-82
2022/07/18 00:37:56;;;;;;;2.60;2.00;;;16.30;97.20;;;;;;5015018;28;20179;-82
2022/07/18 00:40:21;;;;;;;5.83;2.20;;;16.20;97.10;;;;;;5015771;28;20163;-82
2022/07/18 00:42:47;;;;;;;4.07;2.37;;;16.50;96.70;;;;;;5014514;28;20170;-82
2022/07/18 00:45:13;;;;;;;4.40;1.83;;;16.50;96.40;;;;;;5014546;28;20194;-82
2022/07/18 00:47:38;;;;;;;4.87;1.90;;;16.50;96.80;;;;;;5014543;28;20178;-82
2022/07/18 00:50:06;;;;;;;4.67;1.53;;;16.20;97.50;;;;;;5014636;28;20265;-82
2022/07/18 00:52:33;;;;;;;6.43;2.50;;;16.10;97.40;;;;;;5013963;28;20234;-82
2022/07/18 00:55:00;;;;;;;3.20;2.00;;;16.20;96.90;;;;;;5014825;28;20205;-83
2022/07/18 00:57:27;;;;;;;3.73;2.10;;;16.30;96.60;;;;;;5014917;28;20179;-83
2022/07/18 01:02:39;;;;;;;8.57;2.20;;;16.30;96.70;;;;;;5015884;28;20204;-83
2022/07/18 01:05:07;;;;;;;2.57;2.33;;;16.10;97.20;;;;;;5014820;28;20277;-82
2022/07/18 01:07:35;;;;;;;4.87;2.33;;;16.10;97.60;;;;;;5015097;28;20186;-82
2022/07/18 01:10:01;;;;;;;2.77;1.97;;;16.00;98.20;;;;;;5015555;28;20593;-82
2022/07/18 01:12:27;;;;;;;5.77;2.27;;;16.00;98.70;;;;;;5014446;28;20178;-82
2022/07/18 01:14:53;;;;;;;7.47;2.00;;;16.00;98.40;;;;;;5016620;28;20546;-82
2022/07/18 01:17:19;;;;;;;4.67;2.00;;;16.10;98.30;;;;;;5017364;28;20210;-82
2022/07/18 01:19:45;;;;;;;5.37;2.20;;;16.00;98.10;;;;;;5017094;28;20189;-82
2022/07/18 01:22:13;;;;;;;4.43;2.37;;;15.90;98.70;;;;;;5016951;28;20183;-82
2022/07/18 01:24:40;;;;;;;4.60;2.20;;;16.00;97.80;;;;;;5017217;28;20201;-82
2022/07/18 01:27:06;;;;;;;3.20;2.00;;;15.90;98.30;;;;;;5017017;28;20548;-82
2022/07/18 01:29:32;;;;;;;5.10;2.30;;;16.00;98.40;;;;;;5017563;28;20159;-82
2022/07/18 01:32:07;;;;;;;3.37;2.30;;;16.20;97.60;;;;;;5017216;28;20269;-82
2022/07/18 01:34:33;;;;;;;4.33;2.10;;;16.20;98.30;;;;;;5017280;28;20718;-82
2022/07/18 01:36:59;;;;;;;5.47;2.40;;;15.90;99.20;;;;;;5017563;28;20199;-82
2022/07/18 01:39:25;;;;;;;6.23;2.30;;;15.80;99.20;;;;;;5017341;28;20185;-82
2022/07/18 01:41:56;;;;;;;6.70;2.30;;;15.70;99.90;;;;;;5017370;28;20178;-82
2022/07/18 01:44:21;;;;;;;4.73;2.23;;;15.70;99.90;;;;;;5017519;28;20655;-82
2022/07/18 01:46:47;;;;;;;5.83;2.23;;;15.80;99.90;;;;;;5017651;28;20178;-82
2022/07/18 01:49:12;;;;;;;4.90;2.10;;;15.70;99.90;;;;;;5018414;28;20190;-82
2022/07/18 01:51:38;;;;;;;4.33;2.47;;;15.70;99.90;;;;;;5017653;28;20551;-82
2022/07/18 01:54:04;;;;;;;7.33;2.30;;;15.50;99.90;;;;;;5017806;28;20246;-82
2022/07/18 01:56:29;;;;;;;3.37;2.50;;;15.40;99.90;;;;;;5019710;28;20195;-82
2022/07/18 01:58:56;;;;;;;5.00;2.60;;;15.30;99.90;;;;;;5017890;28;20663;-83
2022/07/18 02:01:22;;;;;;;3.80;2.23;;;15.40;99.90;;;;;;5016880;28;20635;-83
2022/07/18 02:03:47;;;;;;;4.10;2.37;;;15.50;99.90;;;;;;5019637;28;20207;-82
2022/07/18 02:06:13;;;;;;;4.67;2.43;;;15.30;99.90;;;;;;5021598;28;20174;-82
2022/07/18 02:08:39;;;;;;;4.83;2.20;;;15.20;99.90;;;;;;5021542;28;20182;-83
2022/07/18 02:11:05;;;;;;;7.63;2.70;;;15.10;99.90;;;;;;5022313;28;20187;-82
2022/07/18 02:13:30;;;;;;;4.43;2.47;;;15.10;99.90;;;;;;5020655;28;20206;-82
2022/07/18 02:15:56;;;;;;;5.83;2.50;;;15.20;99.90;;;;;;5020555;28;20309;-82
2022/07/18 02:18:21;;;;;;;4.13;2.60;;;15.50;99.90;;;;;;5021010;28;20181;-82
2022/07/18 02:20:47;;;;;;;5.53;2.27;;;15.40;99.90;;;;;;5020726;28;20179;-83
2022/07/18 02:23:13;;;;;;;5.33;2.83;;;15.20;99.90;;;;;;5020905;28;20201;-82
2022/07/18 02:25:39;;;;;;;5.17;2.60;;;15.20;99.90;;;;;;5021463;28;20186;-82
2022/07/18 02:28:05;;;;;;;7.30;2.60;;;15.20;99.90;;;;;;5021374;28;20170;-82
2022/07/18 02:30:30;;;;;;;3.77;2.40;;;15.10;99.90;;;;;;5021360;28;20636;-83
2022/07/18 02:32:56;;;;;;;3.77;2.63;;;15.10;99.90;;;;;;5021877;28;20178;-82
2022/07/18 02:35:22;;;;;;;5.50;2.30;;;15.20;99.90;;;;;;5021916;28;20329;-82
2022/07/18 02:37:48;;;;;;;5.77;2.63;;;15.30;99.90;;;;;;5022392;28;20186;-82
2022/07/18 02:40:13;;;;;;;5.20;2.30;;;14.90;99.90;;;;;;5021833;28;20270;-82
2022/07/18 02:42:39;;;;;;;3.63;2.43;;;15.20;99.90;;;;;;5023883;28;20178;-82
2022/07/18 02:45:06;;;;;;;6.00;2.40;;;15.10;99.90;;;;;;5022991;28;20195;-82
2022/07/18 02:47:31;;;;;;;4.40;2.50;;;14.90;99.90;;;;;;5024129;28;20221;-82
2022/07/18 02:49:57;;;;;;;5.27;2.70;;;15.20;99.90;;;;;;5020490;28;20179;-82
2022/07/18 02:52:23;;;;;;;5.17;2.60;;;15.10;99.90;;;;;;5015576;28;20187;-82
2022/07/18 02:54:48;;;;;;;6.67;2.70;;;15.00;99.90;;;;;;5015387;28;20666;-82
2022/07/18 02:57:14;;;;;;;5.43;2.30;;;15.00;99.90;;;;;;5015670;28;20679;-82
2022/07/18 02:59:40;;;;;;;5.40;2.57;;;15.00;99.90;;;;;;5016593;28;20174;-82
2022/07/18 03:02:05;;;;;;;3.43;2.63;;;14.60;99.90;;;;;;5018234;28;20190;-82
2022/07/18 03:04:31;;;;;;;7.97;2.97;;;14.60;99.90;;;;;;5015577;28;20289;-82
2022/07/18 03:06:57;;;;;;;5.63;2.60;;;14.70;99.90;;;;;;5015060;28;20189;-83
2022/07/18 03:09:26;;;;;;;5.43;2.67;;;14.70;99.90;;;;;;5015366;28;20175;-83
2022/07/18 03:11:53;;;;;;;6.50;2.90;;;14.80;99.90;;;;;;5015267;28;20186;-83
2022/07/18 03:14:19;;;;;;;6.60;2.60;;;14.50;99.90;;;;;;5016560;28;20201;-83
2022/07/18 03:16:44;;;;;;;4.73;2.63;;;14.70;99.90;;;;;;5016494;28;20199;-83
2022/07/18 03:19:10;;;;;;;6.17;2.63;;;14.80;99.90;;;;;;5016596;28;20532;-83
2022/07/18 03:21:35;;;;;;;4.63;2.80;;;14.90;99.90;;;;;;5014746;28;20183;-83
2022/07/18 03:24:01;;;;;;;6.57;2.70;;;14.80;99.90;;;;;;5014043;28;20203;-82
2022/07/18 03:26:27;;;;;;;8.33;2.83;;;14.80;99.90;;;;;;5014620;28;20190;-82
2022/07/18 03:28:52;;;;;;;3.87;2.13;;;14.70;99.90;;;;;;5015089;28;20178;-83
2022/07/18 03:31:21;;;;;;;9.37;2.87;;;14.70;99.90;;;;;;5016161;28;20179;-83
2022/07/18 03:33:47;;;;;;;9.57;2.93;;;14.70;99.90;;;;;;5015945;28;20206;-83
2022/07/18 03:36:13;;;;;;;8.10;3.07;;;14.70;99.90;;;;;;5016631;28;20224;-82
2022/07/18 03:38:42;;;;;;;5.13;2.90;;;14.50;99.90;;;;;;5019216;28;20177;-82
2022/07/18 03:41:10;;;;;;;5.57;3.03;;;14.50;99.90;;;;;;5019789;28;20522;-83
2022/07/18 03:43:37;;;;;;;4.63;2.70;;;14.50;99.90;;;;;;5018792;28;20194;-83
2022/07/18 03:46:03;;;;;;;5.53;2.80;;;14.70;99.90;;;;;;5018791;28;20647;-83
2022/07/18 03:48:29;;;;;;;3.10;2.43;;;14.60;99.90;;;;;;5019364;28;20180;-83
2022/07/18 03:50:55;;;;;;;4.47;2.50;;;14.60;99.90;;;;;;5018642;28;20178;-83
2022/07/18 03:53:20;;;;;;;3.67;3.00;;;14.70;99.90;;;;;;5018922;28;20222;-83
2022/07/18 03:55:46;;;;;;;8.27;3.30;;;14.90;99.90;;;;;;5020359;28;20195;-83
2022/07/18 03:58:11;;;;;;;3.60;2.50;;;14.90;99.90;;;;;;5019268;28;20792;-83
2022/07/18 04:00:37;;;;;;;5.50;2.87;;;14.90;99.90;;;;;;5021335;28;20182;-82
2022/07/18 04:03:03;;;;;;;9.07;2.97;;;14.80;99.90;;;;;;5020681;28;20198;-83
2022/07/18 04:05:28;;;;;;;4.50;2.90;;;14.80;99.90;;;;;;5021498;28;20186;-82
2022/07/18 04:07:54;;;;;;;4.73;2.90;;;14.90;99.90;;;;;;5022720;28;20202;-82
2022/07/18 04:10:20;;;;;;;4.50;2.77;;;14.80;99.90;;;;;;5021947;28;20178;-82
2022/07/18 04:12:51;;;;;;;5.03;2.30;;;14.90;99.90;;;;;;5022872;28;20723;-82
2022/07/18 04:15:19;;;;;;;8.73;2.90;;;15.00;99.90;;;;;;5019989;28;20547;-82
2022/07/18 04:17:44;;;;;;;3.53;2.63;;;14.80;99.90;;;;;;5012638;28;20171;-82
2022/07/18 04:20:10;;;;;;;4.73;2.80;;;14.50;99.90;;;;;;5012898;28;20508;-82
2022/07/18 04:22:51;;;;;;;6.53;2.60;;;14.50;99.90;;;;;;5012232;28;20171;-82
2022/07/18 04:25:19;;;;;;;6.53;2.83;;;14.70;99.90;;;;;;5011814;28;20298;-82
2022/07/18 04:27:45;;;;;;;5.97;2.70;;;14.80;99.90;;;;;;5012002;28;20167;-82
2022/07/18 04:30:11;;;;;;;6.40;2.63;;;14.80;99.90;;;;;;5013322;28;20171;-83
2022/07/18 04:32:38;;;;;;;8.67;2.77;;;15.00;99.90;;;;;;5012626;28;20668;-83
2022/07/18 04:35:05;;;;;;;5.77;3.00;;;15.00;99.90;;;;;;5012322;28;20214;-83
2022/07/18 04:37:31;;;;;;;7.30;2.80;;;15.00;99.90;;;;;;5012845;28;20167;-83
2022/07/18 04:39:58;;;;;;;5.13;2.63;;;15.10;99.90;;;;;;5015323;28;20174;-82
2022/07/18 04:42:24;;;;;;;8.40;3.03;;;15.20;99.90;;;;;;5013510;28;20170;-83
2022/07/18 04:44:50;;;;;;;7.27;2.80;;;15.30;99.90;;;;;;5012155;28;20201;-83
2022/07/18 04:47:15;;;;;;;7.93;2.50;;;15.30;99.90;;;;;;5012048;28;20175;-83
2022/07/18 04:49:41;;;;;;;4.70;2.60;;;15.50;99.90;;;;;;5013476;28;20174;-83
2022/07/18 04:52:06;;;;;;;7.37;2.47;;;15.80;99.90;;;;;;5011458;28;20871;-83
2022/07/18 04:54:32;;;;;;;7.83;2.83;;;16.30;99.90;;;;;;5011530;28;20194;-83
2022/07/18 04:56:58;;;;;;;10.87;2.60;;;16.00;99.90;;;;;;5011552;28;20328;-83
2022/07/18 04:59:23;;;;;;;7.10;2.30;;;16.60;99.90;;;;;;5012310;28;20170;-83
2022/07/18 05:01:49;;;;;;;9.20;2.80;;;16.60;99.50;;;;;;5011541;28;20193;-83
2022/07/18 05:04:15;;;;;;;11.20;2.47;;;16.70;99.50;;;;;;5011895;28;20199;-83
2022/07/18 05:06:41;;;;;;;5.73;2.80;;;17.00;98.60;;;;;;5013712;28;20175;-82
2022/07/18 05:09:06;;;;;;;4.67;2.60;;;16.90;99.00;;;;;;5011559;28;20189;-83
2022/07/18 05:11:32;;;;;;;10.60;2.57;;;16.80;98.80;;;;;;5011546;28;20273;-83
2022/07/18 05:13:57;;;;;;;5.07;2.33;;;16.80;98.90;;;;;;5011321;28;20203;-83
2022/07/18 05:16:23;;;;;;;5.87;2.60;;;16.90;99.50;;;;;;5011073;28;20198;-82
2022/07/18 05:18:48;;;;;;;9.03;2.73;;;17.10;99.80;;;;;;5011706;28;20190;-82
2022/07/18 05:21:14;;;;;;;7.30;2.53;;;17.20;99.90;;;;;;5011468;28;20171;-82
2022/07/18 05:23:40;;;;;;;6.90;2.60;;;16.90;98.40;;;;;;5013722;28;20202;-82
2022/07/18 05:26:06;;;;;;;5.63;2.30;;;16.90;98.50;;;;;;5012406;28;20181;-83
2022/07/18 05:28:31;;;;;;;7.83;2.40;;;16.80;98.50;;;;;;5014789;28;20186;-83
2022/07/18 05:30:57;;;;;;;4.07;2.37;;;16.90;98.00;;;;;;5013101;28;20183;-83
2022/07/18 05:33:23;;;;;;;5.37;2.17;;;17.20;97.90;;;;;;5011991;28;20202;-83
2022/07/18 05:35:48;;;;;;;6.40;2.57;;;17.30;97.90;;;;;;5012603;28;20234;-83
2022/07/18 05:38:14;;;;;;;13.33;2.43;;;17.20;98.00;;;;;;5015682;28;20198;-83
2022/07/18 05:40:39;;;;;;;6.03;2.60;;;17.30;97.70;;;;;;5016654;28;20269;-83
2022/07/18 05:43:05;;;;;;;5.17;2.70;;;17.50;97.60;;;;;;5016198;28;20170;-82
2022/07/18 05:45:31;;;;;;;5.73;2.43;;;17.60;97.80;;;;;;5017247;28;20179;-83
2022/07/18 05:47:56;;;;;;;5.70;2.50;;;17.70;97.20;;;;;;5016454;28;20179;-83
2022/07/18 05:50:23;;;;;;;10.20;2.80;;;17.90;97.30;;;;;;5016854;28;20550;-82
2022/07/18 05:52:49;;;;;;;11.77;2.40;;;18.20;97.50;;;;;;5015500;28;20210;-83
2022/07/18 05:55:15;;;;;;;6.83;2.20;;;18.50;97.10;;;;;;5015255;28;20281;-83
2022/07/18 05:57:41;;;;;;;5.73;2.10;;;18.60;96.90;;;;;;5015597;28;20186;-82
2022/07/18 06:00:09;;;;;;;16.03;2.80;;;18.70;96.40;;;;;;5015774;28;20202;-82
2022/07/18 06:02:36;;;;;;;10.17;2.37;;;18.90;96.30;;;;;;5015110;28;20557;-83
2022/07/18 06:05:02;;;;;;;7.20;2.30;;;19.30;96.40;;;;;;5015235;28;20191;-83
2022/07/18 06:07:28;;;;;;;6.50;2.00;;;19.20;95.60;;;;;;5015287;28;20178;-82
2022/07/18 06:09:53;;;;;;;9.30;2.30;;;19.00;95.10;;;;;;5015268;28;20546;-82
2022/07/18 06:12:20;;;;;;;8.95;1.88;;;19.00;95.10;;;;;;5014868;28;20241;-83
2022/07/18 06:14:45;;;;;;;5.77;1.93;;;19.40;95.00;;;;;;5015836;28;20236;-81
2022/07/18 06:17:11;;;;;;;10.75;2.08;;;20.10;94.40;;;;;;5015229;28;20778;-80
2022/07/18 06:19:39;;;;;;;3.75;1.90;;;20.60;93.60;;;;;;5015299;28;20225;-80
2022/07/18 06:22:04;;;;;;;6.38;1.92;;;20.60;93.00;;;;;;5014332;28;20185;-80
2022/07/18 06:24:30;;;;;;;10.43;1.95;;;20.70;92.10;;;;;;5014770;28;20226;-80
2022/07/18 06:26:56;;;;;;;6.10;1.90;;;21.00;92.10;;;;;;5014541;28;20229;-80
2022/07/18 06:29:22;;;;;;;4.65;1.63;;;21.20;91.90;;;;;;5014298;28;20171;-80
2022/07/18 06:31:48;;;;;;;12.05;2.03;;;21.10;91.30;;;;;;5020365;28;20177;-79
2022/07/18 06:34:14;;;;;;;7.45;1.63;;;21.30;91.40;;;;;;5024099;28;20191;-79
2022/07/18 06:36:39;;;;;;;6.93;1.80;;;21.50;90.10;;;;;;5033601;28;20289;-78
2022/07/18 06:39:10;;;;;;;7.32;1.80;;;21.20;90.70;;;;;;5033577;28;20170;-81
2022/07/18 06:41:37;;;;;;;10.02;2.10;;;21.20;91.00;;;;;;5033627;28;20174;-79
2022/07/18 06:44:03;;;;;;;7.20;1.92;;;21.50;90.50;;;;;;5033405;28;20197;-81
2022/07/18 06:46:29;;;;;;;7.75;2.20;;;21.80;90.60;;;;;;5033191;28;20537;-80
2022/07/18 06:48:54;;;;;;;7.15;1.88;;;22.20;90.00;;;;;;5025185;28;20220;-80
2022/07/18 06:51:20;;;;;;;6.75;1.75;;;22.20;89.20;;;;;;5023888;28;20166;-82
2022/07/18 06:53:46;;;;;;;6.95;2.28;;;22.70;89.50;;;;;;5033090;28;20193;-79
2022/07/18 06:56:11;;;;;;;2.53;1.50;;;22.60;88.70;;;;;;5033108;28;20190;-79
2022/07/18 06:58:37;;;;;;;7.10;1.65;;;22.30;89.30;;;;;;5033121;28;20635;-79
2022/07/18 07:01:03;;;;;;;5.35;1.63;;;22.50;87.90;;;;;;5022273;28;20639;-79
2022/07/18 07:03:29;;;;;;;4.82;2.38;;;22.40;87.90;;;;;;5025043;28;20206;-78
2022/07/18 07:05:55;;;;;;;5.70;1.75;;;22.30;87.50;;;;;;5024018;28;20170;-78
2022/07/18 07:08:20;;;;;;;4.80;2.00;;;22.00;89.00;;;;;;5023338;28;20175;-78
2022/07/18 07:10:46;;;;;;;3.13;1.60;;;22.10;87.90;;;;;;5021731;28;20165;-78
2022/07/18 07:13:12;;;;;;;9.82;1.88;;;22.40;87.90;;;;;;5020259;28;20195;-77
2022/07/18 07:15:40;;;;;;;11.00;1.80;;;22.70;88.50;;;;;;5024887;28;20187;-79
2022/07/18 07:18:05;;;;;;;6.30;1.83;;;23.00;85.80;;;;;;5024955;28;20162;-80
2022/07/18 07:20:31;;;;;;;5.45;1.92;;;22.90;87.20;;;;;;5021776;28;20173;-80
2022/07/18 07:22:57;;;;;;;6.18;1.70;;;23.10;87.20;;;;;;5023008;28;20202;-79
2022/07/18 07:25:25;;;;;;;11.80;1.77;;;22.80;86.70;;;;;;5022900;28;20174;-79
2022/07/18 07:27:54;;;;;;;9.02;1.70;;;23.20;87.40;;;;;;5033273;28;20181;-80
2022/07/18 07:30:20;;;;;;;11.20;1.77;;;23.60;86.00;;;;;;5023160;28;20738;-80
2022/07/18 07:32:47;;;;;;;15.20;2.25;;;23.60;86.80;;;;;;5024324;28;20205;-80
2022/07/18 07:35:15;;;;;;;8.88;1.65;;;23.90;86.00;;;;;;5022477;28;20183;-80
2022/07/18 07:37:46;;;;;;;7.30;1.70;;;23.80;85.00;;;;;;5033781;28;20650;-81
2022/07/18 07:40:13;;;;;;;10.18;2.00;;;24.00;85.30;;;;;;5033138;28;20185;-80
2022/07/18 07:42:39;;;;;;;11.80;1.90;;;24.20;84.90;;;;;;5033192;28;20252;-80
2022/07/18 07:45:05;;;;;;;16.08;3.85;;;24.30;84.70;;;;;;5033074;28;20271;-80
2022/07/18 07:47:31;;;;;;;11.15;2.10;;;24.00;84.70;;;;;;5030333;28;20181;-80
2022/07/18 07:49:59;;;;;;;13.50;5.63;;;24.00;84.30;;;;;;5032388;28;20185;-80
2022/07/18 07:52:25;;;;;;;10.43;3.15;;;24.10;83.60;;;;;;5033071;28;20186;-80
2022/07/18 07:54:51;;;;;;;4.93;1.98;;;24.20;84.40;;;;;;5032126;28;20201;-79
2022/07/18 07:57:17;;;;;;;3.85;1.92;;;24.60;82.10;;;;;;5032767;28;20602;-80
2022/07/18 07:59:43;;;;;;;7.03;1.60;;;24.60;81.40;;;;;;5034025;28;20163;-80
2022/07/18 08:02:08;;;;;;;7.45;2.03;;;25.10;81.30;;;;;;5031742;28;20186;-80
2022/07/18 08:04:34;;;;;;;7.10;1.45;;;25.50;81.20;;;;;;5031464;28;20205;-79
2022/07/18 08:07:00;;;;;;;2.28;1.33;;;24.80;80.00;;;;;;5031800;28;20646;-79
2022/07/18 08:09:26;;;;;;;6.88;1.55;;;25.00;80.50;;;;;;5032643;28;20204;-78
2022/07/18 08:11:52;;;;;;;8.30;2.20;;;25.20;80.40;;;;;;5032202;28;20174;-78
2022/07/18 08:14:17;;;;;;;6.20;2.25;;;25.60;80.70;;;;;;5032287;28;20206;-78
2022/07/18 08:16:43;;;;;;;8.02;1.92;;;25.80;81.40;;;;;;5032446;28;20210;-79
2022/07/18 08:19:09;;;;;;;6.78;1.80;;;26.30;79.30;;;;;;5032883;28;20166;-78
2022/07/18 08:21:34;;;;;;;5.22;1.65;;;26.60;80.00;;;;;;5032995;28;20320;-79
2022/07/18 08:24:00;;;;;;;9.25;2.10;;;26.30;78.20;;;;;;5032823;28;20273;-78
2022/07/18 08:26:26;;;;;;;5.72;1.65;;;26.70;78.20;;;;;;5033056;28;20174;-79
2022/07/18 08:28:52;;;;;;;5.70;1.90;;;26.60;77.20;;;;;;5033353;28;20197;-79
2022/07/18 08:31:18;;;;;;;9.77;1.88;;;27.20;75.30;;;;;;5033017;28;20528;-80
2022/07/18 08:33:44;;;;;;;7.30;1.60;;;26.90;77.80;;;;;;5033324;28;20209;-79
2022/07/18 08:36:10;;;;;;;7.88;1.52;;;27.30;74.10;;;;;;5032887;28;20292;-79
2022/07/18 08:38:36;;;;;;;4.07;1.67;;;26.90;74.10;;;;;;5033513;28;20209;-79
2022/07/18 08:41:03;;;;;;;4.05;1.60;;;27.10;74.20;;;;;;5032649;28;20209;-80
2022/07/18 08:43:28;;;;;;;5.75;1.63;;;27.40;74.40;;;;;;5033410;28;20194;-79
2022/07/18 08:45:59;;;;;;;6.45;1.80;;;27.60;72.90;;;;;;5031290;28;20593;-79
2022/07/18 08:48:25;;;;;;;4.43;1.85;;;27.90;72.10;;;;;;5032769;28;20588;-79
2022/07/18 08:50:50;;;;;;;6.80;1.55;;;27.40;71.70;;;;;;5033103;28;20174;-80
2022/07/18 08:53:17;;;;;;;7.15;1.40;;;27.70;71.90;;;;;;5032541;28;20197;-80
2022/07/18 08:55:44;;;;;;;5.00;1.80;;;27.70;72.50;;;;;;5033334;28;20659;-80
2022/07/18 08:58:12;;;;;;;3.42;1.60;;;27.90;71.80;;;;;;5026854;28;20182;-79
2022/07/18 09:00:37;;;;;;;6.55;1.80;;;28.40;71.30;;;;;;5021968;28;20175;-80
2022/07/18 09:03:04;;;;;;;4.00;1.58;;;28.60;71.40;;;;;;5021573;28;20196;-80
2022/07/18 09:05:30;;;;;;;3.05;1.42;;;28.50;69.70;;;;;;5022594;28;20163;-80
2022/07/18 09:08:12;;;;;;;2.53;1.30;;;28.60;68.90;;;;;;5030084;28;20256;-80
2022/07/18 09:10:54;;;;;;;4.20;1.40;;;28.70;69.20;;;;;;5031716;28;20576;-80
2022/07/18 09:13:23;;;;;;;5.32;1.45;;;29.10;70.20;;;;;;5032919;28;20192;-80
2022/07/18 09:16:08;;;;;;;3.58;1.92;;;28.90;69.30;;;;;;5036856;28;20205;-80
2022/07/18 09:18:36;;;;;;;8.90;2.20;;;28.40;68.80;;;;;;5038146;28;20691;-80
2022/07/18 09:21:11;;;;;;;9.65;1.90;;;28.80;69.00;;;;;;5037151;28;20635;-80
2022/07/18 09:23:39;;;;;;;2.17;1.35;;;29.60;65.80;;;;;;5032924;28;20204;-78
2022/07/18 09:26:07;;;;;;;11.20;1.90;;;29.60;66.60;;;;;;5036463;28;20186;-79
2022/07/18 09:28:50;;;;;;;25.58;2.85;;;29.20;67.30;;;;;;5040205;28;20718;-80
2022/07/18 09:31:24;;;;;;;4.95;1.23;;;29.20;67.00;;;;;;5041949;28;20185;-80
2022/07/18 09:33:55;;;;;;;5.55;1.80;;;29.60;66.70;;;;;;5035750;28;20201;-80
2022/07/18 09:36:22;;;;;;;7.63;1.65;;;29.60;66.20;;;;;;5034642;28;20205;-80
2022/07/18 09:38:47;;;;;;;3.97;1.50;;;29.10;66.60;;;;;;5035515;28;20170;-80
2022/07/18 09:41:13;;;;;;;4.95;1.60;;;29.40;66.60;;;;;;5035736;28;20661;-80
2022/07/18 09:43:39;;;;;;;2.33;1.50;;;29.90;66.60;;;;;;5035833;28;20190;-81
2022/07/18 09:46:06;;;;;;;5.93;1.60;;;29.80;66.70;;;;;;5035707;28;20590;-80
2022/07/18 09:48:32;;;;;;;3.58;1.40;;;30.40;66.50;;;;;;5036006;28;20186;-80
2022/07/18 09:51:04;;;;;;;5.70;1.65;;;30.40;66.30;;;;;;5035496;28;20178;-80
2022/07/18 09:53:42;;;;;;;5.07;1.35;;;30.70;65.30;;;;;;5034335;28;20190;-80
2022/07/18 09:56:22;;;;;;;8.50;1.63;;;30.10;65.10;;;;;;5036173;28;20193;-81
2022/07/18 09:58:53;;;;;;;7.95;1.40;;;30.20;65.20;;;;;;5035511;28;20165;-82
2022/07/18 10:01:19;;;;;;;4.82;1.50;;;30.30;65.90;;;;;;5034912;28;20703;-81
2022/07/18 10:03:45;;;;;;;2.67;1.48;;;30.30;65.70;;;;;;5035727;28;20214;-81
2022/07/18 10:06:12;;;;;;;2.80;1.30;;;30.30;64.60;;;;;;5034863;28;20208;-81
2022/07/18 10:08:38;;;;;;;1.30;1.20;;;30.30;64.30;;;;;;5034696;28;20181;-81
2022/07/18 10:11:06;;;;;;;5.38;1.60;;;30.70;65.10;;;;;;5034101;28;20561;-80
2022/07/18 10:13:33;;;;;;;5.78;1.50;;;31.50;62.90;;;;;;5035247;28;20317;-80
2022/07/18 10:15:59;;;;;;;3.45;1.50;;;31.70;63.30;;;;;;5034905;28;20344;-80
2022/07/18 10:18:27;;;;;;;5.00;1.60;;;31.60;63.30;;;;;;5034524;28;20235;-80
2022/07/18 10:21:02;;;;;;;4.25;1.20;;;31.80;64.00;;;;;;5035631;28;20647;-79
2022/07/18 10:23:44;;;;;;;64.70;4.32;;;32.00;63.60;;;;;;5035018;28;20201;-81
2022/07/18 10:26:18;;;;;;;3.05;1.40;;;31.90;62.90;;;;;;5037206;28;20212;-82
2022/07/18 10:28:55;;;;;;;3.95;1.70;;;32.00;63.50;;;;;;5035526;28;20174;-82
2022/07/18 10:31:59;;;;;;;4.47;1.60;;;32.10;61.00;;;;;;5035265;28;20252;-82
2022/07/18 10:34:35;;;;;;;4.28;1.45;;;32.10;61.10;;;;;;5034867;28;20221;-82
2022/07/18 10:37:02;;;;;;;1.80;1.55;;;32.20;60.80;;;;;;5035019;28;20205;-81
2022/07/18 10:39:35;;;;;;;4.22;1.60;;;32.70;60.80;;;;;;5035643;28;20540;-81
2022/07/18 10:42:01;;;;;;;6.63;1.85;;;31.80;59.80;;;;;;5035866;28;20178;-81
2022/07/18 10:44:29;;;;;;;6.03;1.83;;;32.20;60.10;;;;;;5034177;28;20260;-80
2022/07/18 10:47:05;;;;;;;3.13;1.80;;;33.10;60.20;;;;;;5035927;28;20551;-80
2022/07/18 10:49:49;;;;;;;3.47;2.03;;;33.40;60.80;;;;;;5036960;28;20177;-82
2022/07/18 10:52:30;;;;;;;5.75;2.20;;;33.50;59.20;;;;;;5033333;28;20232;-81
2022/07/18 10:55:04;;;;;;;1.58;1.48;;;33.80;58.70;;;;;;5034548;28;20205;-81
2022/07/18 10:57:30;;;;;;;4.82;1.98;;;33.20;59.80;;;;;;5035313;28;20185;-81
2022/07/18 11:00:09;;;;;;;2.65;1.80;;;33.80;57.80;;;;;;5036093;28;20228;-79
2022/07/18 11:02:39;;;;;;;5.55;2.10;;;33.40;58.20;;;;;;5023590;28;20193;-79
2022/07/18 11:05:25;;;;;;;4.60;1.90;;;33.70;58.70;;;;;;5033085;28;20221;-79
2022/07/18 11:08:14;;;;;;;5.50;2.20;;;33.20;57.80;;;;;;5026746;28;20201;-79
2022/07/18 11:16:06;;;;;;;3.67;2.35;;;33.90;57.00;;;;;;5036673;28;20200;-81
2022/07/18 11:18:53;;;;;;;3.17;2.20;;;33.70;57.20;;;;;;5035495;28;20543;-80
2022/07/18 11:21:28;;;;;;;5.22;2.30;;;33.50;56.80;;;;;;5033787;28;20170;-79
2022/07/18 11:24:06;;;;;;;2.70;1.80;;;33.70;57.10;;;;;;5036098;28;20235;-79
2022/07/18 11:26:33;;;;;;;7.40;2.30;;;34.10;57.00;;;;;;5033498;28;20173;-80
2022/07/18 11:29:08;;;;;;;3.67;2.17;;;33.80;56.20;;;;;;5032600;28;20179;-78
2022/07/18 11:31:46;;;;;;;5.03;2.05;;;34.20;56.40;;;;;;5035341;28;20178;-80
2022/07/18 11:34:12;;;;;;;3.92;2.20;;;33.90;57.10;;;;;;5035005;28;20193;-79
2022/07/18 11:36:41;;;;;;;3.17;2.13;;;34.10;55.90;;;;;;5022878;28;20256;-79
2022/07/18 11:39:07;;;;;;;5.03;2.35;;;34.60;56.90;;;;;;5026834;28;20177;-81
2022/07/18 11:41:35;;;;;;;9.73;2.30;;;34.50;56.20;;;;;;5033535;28;20162;-81
2022/07/18 11:44:01;;;;;;;7.40;2.20;;;34.60;55.80;;;;;;5030618;28;20185;-81
2022/07/18 11:46:27;;;;;;;5.47;2.35;;;34.10;56.30;;;;;;5033492;28;20525;-81
2022/07/18 11:49:04;;;;;;;4.00;2.45;;;34.40;56.00;;;;;;5034011;28;20213;-81
2022/07/18 11:51:37;;;;;;;4.90;2.35;;;34.60;56.00;;;;;;5032246;28;20170;-82
2022/07/18 11:54:03;;;;;;;3.65;2.25;;;34.70;56.20;;;;;;5031162;28;20585;-80
2022/07/18 11:56:29;;;;;;;5.85;2.50;;;34.90;57.20;;;;;;5034165;28;20208;-81
2022/07/18 11:58:56;;;;;;;3.63;2.63;;;35.10;56.70;;;;;;5034148;28;20174;-82
2022/07/18 12:01:22;;;;;;;10.25;2.95;;;34.60;56.90;;;;;;5033185;28;20239;-82
2022/07/18 12:03:49;;;;;;;6.50;3.13;;;35.20;57.30;;;;;;5034239;28;20205;-80
2022/07/18 12:06:18;;;;;;;6.43;2.50;;;35.10;54.80;;;;;;5034201;28;20273;-79
2022/07/18 12:08:45;;;;;;;6.00;2.30;;;34.60;55.10;;;;;;5035454;28;20177;-80
2022/07/18 12:11:17;;;;;;;4.07;2.38;;;34.80;56.60;;;;;;5035600;28;20197;-81
2022/07/18 12:13:46;;;;;;;2.53;2.33;;;34.50;56.00;;;;;;5036245;28;20197;-82
2022/07/18 12:16:24;;;;;;;5.57;2.67;;;35.00;54.50;;;;;;5035115;28;20213;-80
2022/07/18 12:18:58;;;;;;;7.68;2.78;;;34.40;56.10;;;;;;5035510;28;20173;-80
2022/07/18 12:21:24;;;;;;;4.45;2.40;;;34.40;55.50;;;;;;5035217;28;20159;-82
2022/07/18 12:23:50;;;;;;;4.13;2.50;;;34.20;57.30;;;;;;5035613;28;20569;-83
2022/07/18 12:26:29;;;;;;;8.80;2.80;;;34.00;56.00;;;;;;5034448;28;20186;-81
2022/07/18 12:29:08;;;;;;;2.70;2.50;;;33.70;55.90;;;;;;5035513;28;20593;-81
2022/07/18 12:31:43;;;;;;;3.78;2.20;;;33.90;57.40;;;;;;5037671;28;20165;-82
2022/07/18 12:34:16;;;;;;;6.47;2.60;;;33.70;56.60;;;;;;5034967;28;20573;-82
2022/07/18 12:36:57;;;;;;;2.47;2.28;;;33.50;57.80;;;;;;5034253;28;20193;-82
2022/07/18 12:39:26;;;;;;;5.30;2.50;;;33.80;57.50;;;;;;5034585;28;20201;-82
2022/07/18 12:41:52;;;;;;;3.40;2.50;;;33.80;56.10;;;;;;5034038;28;20247;-83
2022/07/18 12:44:18;;;;;;;3.22;2.65;;;33.70;57.00;;;;;;5034600;28;20734;-82
2022/07/18 12:46:43;;;;;;;5.72;2.42;;;33.40;57.30;;;;;;5035141;28;20554;-82
2022/07/18 12:49:09;;;;;;;5.13;2.88;;;33.40;56.40;;;;;;5034253;28;20193;-81
2022/07/18 12:51:35;;;;;;;3.03;2.13;;;33.20;57.50;;;;;;5034138;28;20178;-81
2022/07/18 12:54:01;;;;;;;4.22;2.50;;;33.40;57.70;;;;;;5033970;28;20232;-82
2022/07/18 12:56:26;;;;;;;7.88;2.50;;;33.20;57.00;;;;;;5032792;28;20678;-80